首页
METAR-TAF:

METAR-TAF

机场 :

Mae Hong Son, 泰国

纬度: 19-18N, 经度: 097-50E, 海拔: 267米

当前天气观测

该预报发布于2小时和11分钟前的11:00 UTC
风速5节,风向西南,在西之间变化
温度 28°C
湿度 79%
气压 1005 hPa
能见度10公里或以上
少量云层高于1500英尺
少量云层高于2000英尺, 积雨云.

METAR: VTCH 171100Z 23005KT 180V280 9999 FEW015 FEW020CB 28/24 Q1005 NOSIG

时间: 20:11 (13:11 UTC)

预报

该预报发布于2小时和11分钟前的11:00 UTC
预报有效从17日的 12点(UTC)到 18日的 12点(UTC)
风速5节,风向西南
能见度10公里或以上
散云层高于2500英尺
短暂存在
从 17日的 12点(UTC)到 17日的 15点(UTC)
少量云层高于2000英尺, 积雨云.
多云层高于2500英尺
雷暴, 小雨
短暂存在
从 18日的 08点(UTC)到 18日的 12点(UTC)
风速15节,风向南转西南,有时为25节阵风
能見度: 4000
少量云层高于2000英尺, 积雨云.
多云层高于2500英尺
雷暴, 雨,

TAF: VTCH 171100Z 1712/1812 22005KT 9999 SCT025 TEMPO 1712/1715 -TSRA FEW020CB BKN025 TEMPO 1808/1812 20015G25KT 4000 TSRA FEW020CB BKN025

超过4000个机场的气象观测和天气预报(METAR&TAF报告)。

可查询的气象台以黄色和红色小点在地图上表示。

将鼠标移到小点上方,可查看气象台名称。

然后点击查看天气观测和预报。

如需切换地图:点击带黑十字的绿色按钮放大地图;点击带横线的绿色按钮缩小地图;或者点击绿色箭头查看邻近地区的地图。


METAR-TAF: